Time;durP1;ratioP1;P1;durP2;ratioP2;P2;SDS_P1;SDS_P2;PMS_P1;PMS_P2;Temp;Humidity;BMP_temperature;BMP_pressure;BME280_temperature;BME280_humidity;BME280_pressure;Samples;Min_cycle;Max_cycle;Signal;HPM_P1;HPM_P2
2021/08/05 00:00:47;;;;;;;3.40;2.83;;;17.30;99.90;;;;;;5017522;28;20197;-79
2021/08/05 00:03:13;;;;;;;3.17;2.80;;;17.30;99.90;;;;;;5016807;28;20496;-79
2021/08/05 00:05:38;;;;;;;4.03;3.10;;;17.30;99.90;;;;;;5017575;28;20442;-79
2021/08/05 00:08:05;;;;;;;3.13;2.83;;;17.30;99.90;;;;;;5018360;28;20198;-79
2021/08/05 00:10:30;;;;;;;5.63;3.33;;;17.30;99.90;;;;;;5018080;28;20257;-78
2021/08/05 00:12:56;;;;;;;2.70;2.30;;;17.20;99.90;;;;;;5022319;28;20488;-78
2021/08/05 00:15:22;;;;;;;4.77;3.20;;;17.20;99.90;;;;;;5024539;28;20214;-79
2021/08/05 00:17:48;;;;;;;3.73;2.70;;;17.20;99.90;;;;;;5017870;28;20175;-79
2021/08/05 00:20:13;;;;;;;4.80;3.00;;;17.10;99.90;;;;;;5000151;28;20464;-79
2021/08/05 00:22:39;;;;;;;2.27;2.00;;;17.20;99.90;;;;;;5017509;28;20197;-79
2021/08/05 00:25:05;;;;;;;4.60;2.77;;;17.20;99.90;;;;;;5017278;28;20177;-79
2021/08/05 00:27:31;;;;;;;2.87;2.40;;;17.20;99.90;;;;;;5000387;28;20171;-79
2021/08/05 00:29:56;;;;;;;2.90;2.40;;;17.10;99.90;;;;;;5017942;28;20474;-77
2021/08/05 00:32:22;;;;;;;2.87;2.57;;;17.10;99.90;;;;;;5015888;28;20274;-78
2021/08/05 00:34:48;;;;;;;3.50;3.20;;;17.10;99.90;;;;;;5015397;28;20180;-78
2021/08/05 00:37:13;;;;;;;3.27;2.47;;;17.10;99.90;;;;;;5016340;28;20174;-78
2021/08/05 00:39:39;;;;;;;3.53;2.77;;;17.10;99.90;;;;;;5015253;28;20198;-78
2021/08/05 00:42:07;;;;;;;3.13;2.40;;;17.10;99.90;;;;;;5015569;28;20649;-78
2021/08/05 00:44:36;;;;;;;2.90;2.33;;;17.10;99.90;;;;;;5016134;28;20222;-78
2021/08/05 00:47:02;;;;;;;3.00;2.50;;;17.20;99.90;;;;;;5015674;28;20935;-78
2021/08/05 00:49:28;;;;;;;4.37;2.40;;;17.10;99.90;;;;;;5016035;28;20412;-78
2021/08/05 00:51:54;;;;;;;2.70;2.40;;;17.10;99.90;;;;;;5013836;28;20940;-78
2021/08/05 00:54:19;;;;;;;3.70;2.73;;;17.00;99.90;;;;;;5015467;28;20277;-77
2021/08/05 00:56:45;;;;;;;3.87;2.10;;;17.00;99.90;;;;;;5013454;28;20229;-78
2021/08/05 00:59:10;;;;;;;3.77;2.60;;;17.00;99.90;;;;;;5016217;28;20201;-78
2021/08/05 01:01:49;;;;;;;2.70;2.13;;;17.00;99.90;;;;;;5014654;28;20668;-78
2021/08/05 01:04:15;;;;;;;4.20;2.37;;;17.00;99.90;;;;;;5014517;28;20194;-78
2021/08/05 01:06:59;;;;;;;2.40;2.07;;;17.00;99.90;;;;;;5015459;28;20409;-79
2021/08/05 01:09:39;;;;;;;3.00;2.10;;;16.90;99.90;;;;;;5016238;28;20416;-77
2021/08/05 01:12:16;;;;;;;4.83;1.80;;;16.90;99.90;;;;;;5014430;28;20499;-78
2021/08/05 01:14:47;;;;;;;2.73;2.37;;;16.80;99.90;;;;;;5015443;28;20785;-78
2021/08/05 01:17:17;;;;;;;3.53;1.90;;;16.80;99.90;;;;;;5014297;28;20425;-78
2021/08/05 01:19:50;;;;;;;3.13;2.20;;;16.80;99.90;;;;;;5013749;28;20832;-77
2021/08/05 01:22:47;;;;;;;4.13;2.40;;;16.80;99.90;;;;;;5014597;28;20451;-78
2021/08/05 01:25:32;;;;;;;3.90;2.23;;;16.70;99.90;;;;;;5013139;28;20843;-78
2021/08/05 01:28:00;;;;;;;3.10;2.13;;;16.70;99.90;;;;;;5015512;28;20480;-78
2021/08/05 01:30:27;;;;;;;4.23;2.60;;;16.70;99.90;;;;;;5016144;28;20458;-78
2021/08/05 01:32:56;;;;;;;2.90;1.97;;;16.70;99.90;;;;;;5016104;28;20437;-78
2021/08/05 01:35:22;;;;;;;3.93;2.10;;;16.60;99.90;;;;;;5015782;28;20432;-77
2021/08/05 01:37:51;;;;;;;3.00;1.90;;;16.60;99.90;;;;;;5015216;28;20449;-78
2021/08/05 01:40:18;;;;;;;7.27;2.30;;;16.50;99.90;;;;;;5015791;28;20472;-80
2021/08/05 01:42:44;;;;;;;2.17;1.70;;;16.50;99.90;;;;;;5015338;28;20489;-79
2021/08/05 01:45:10;;;;;;;3.83;2.20;;;16.50;99.90;;;;;;5016253;28;20400;-79
2021/08/05 01:47:39;;;;;;;1.80;1.53;;;16.40;99.90;;;;;;5014862;28;20433;-78
2021/08/05 01:50:07;;;;;;;2.57;2.17;;;16.40;99.90;;;;;;5014854;28;20479;-78
2021/08/05 01:52:36;;;;;;;3.00;2.10;;;16.40;99.90;;;;;;5015405;28;21015;-78
2021/08/05 01:55:04;;;;;;;2.77;2.10;;;16.40;99.90;;;;;;5014861;28;20409;-79
2021/08/05 01:57:31;;;;;;;2.27;1.83;;;16.40;99.90;;;;;;5016833;28;20419;-79
2021/08/05 01:59:57;;;;;;;2.33;1.70;;;16.40;99.90;;;;;;5016632;28;20634;-80
2021/08/05 02:02:22;;;;;;;4.03;2.27;;;16.40;99.90;;;;;;5014042;28;20440;-79
2021/08/05 02:05:01;;;;;;;5.03;2.00;;;16.40;99.90;;;;;;5015889;28;20654;-78
2021/08/05 02:07:52;;;;;;;3.07;2.17;;;16.40;99.90;;;;;;5017367;28;20231;-78
2021/08/05 02:10:48;;;;;;;9.93;1.80;;;16.40;99.90;;;;;;5019037;28;20433;-79
2021/08/05 02:13:17;;;;;;;2.93;1.90;;;16.50;99.90;;;;;;5013998;28;20449;-79
2021/08/05 02:15:48;;;;;;;3.93;2.10;;;16.40;99.90;;;;;;5018037;28;20409;-77
2021/08/05 02:18:14;;;;;;;2.93;1.70;;;16.20;99.90;;;;;;5018387;28;20405;-77
2021/08/05 02:20:43;;;;;;;6.13;2.27;;;16.10;99.90;;;;;;5018217;28;20894;-79
2021/08/05 02:23:10;;;;;;;2.10;1.90;;;16.10;99.90;;;;;;5019125;28;20424;-79
2021/08/05 02:25:38;;;;;;;2.30;2.03;;;16.10;99.90;;;;;;5018102;28;20413;-77
2021/08/05 02:28:07;;;;;;;3.40;2.10;;;16.10;99.90;;;;;;5017972;28;20548;-78
2021/08/05 02:30:35;;;;;;;3.97;2.90;;;16.10;99.90;;;;;;5016595;28;20409;-78
2021/08/05 02:33:00;;;;;;;2.67;2.20;;;16.00;99.90;;;;;;5017423;28;20483;-78
2021/08/05 02:35:27;;;;;;;3.40;2.30;;;16.00;99.90;;;;;;5018415;28;20819;-79
2021/08/05 02:37:54;;;;;;;3.30;2.40;;;16.00;99.90;;;;;;5017958;28;20408;-79
2021/08/05 02:40:19;;;;;;;2.43;1.90;;;16.00;99.90;;;;;;5019710;28;20466;-79
2021/08/05 02:42:46;;;;;;;2.73;2.13;;;16.00;99.90;;;;;;5018032;28;20447;-79
2021/08/05 02:45:13;;;;;;;4.10;2.50;;;15.90;99.90;;;;;;5019409;28;20434;-78
2021/08/05 02:47:39;;;;;;;2.10;1.67;;;15.90;99.90;;;;;;5019808;28;20436;-79
2021/08/05 02:50:06;;;;;;;2.73;2.10;;;15.90;99.90;;;;;;5019757;28;20423;-78
2021/08/05 02:52:33;;;;;;;3.10;2.50;;;15.90;99.90;;;;;;5018509;28;20434;-80
2021/08/05 02:55:03;;;;;;;3.33;2.40;;;15.90;99.90;;;;;;5019016;28;20427;-78
2021/08/05 02:57:29;;;;;;;3.13;2.30;;;16.00;99.90;;;;;;5020127;28;20416;-78
2021/08/05 02:59:55;;;;;;;2.83;2.13;;;16.00;99.90;;;;;;5018034;28;20533;-78
2021/08/05 03:02:21;;;;;;;3.57;2.37;;;16.00;99.90;;;;;;5015716;28;20416;-77
2021/08/05 03:04:49;;;;;;;2.70;2.23;;;15.90;99.90;;;;;;5017234;28;20416;-80
2021/08/05 03:07:15;;;;;;;3.53;2.13;;;15.90;99.90;;;;;;5016393;28;20505;-77
2021/08/05 03:09:41;;;;;;;3.37;3.00;;;15.80;99.90;;;;;;5016483;28;20926;-77
2021/08/05 03:12:06;;;;;;;4.37;2.27;;;15.90;99.90;;;;;;4999046;28;20420;-80
2021/08/05 03:14:32;;;;;;;7.73;2.13;;;15.90;99.90;;;;;;5016924;28;20460;-77
2021/08/05 03:17:01;;;;;;;2.43;2.20;;;15.80;99.90;;;;;;5017518;28;20553;-77
2021/08/05 03:19:27;;;;;;;2.73;1.97;;;15.80;99.90;;;;;;5015838;28;20206;-76
2021/08/05 03:21:53;;;;;;;6.47;3.20;;;15.70;99.90;;;;;;4999747;28;20946;-77
2021/08/05 03:24:19;;;;;;;4.03;2.57;;;15.90;99.90;;;;;;5017392;28;20463;-79
2021/08/05 03:26:44;;;;;;;4.17;2.80;;;15.80;99.90;;;;;;5019862;28;20541;-79
2021/08/05 03:29:13;;;;;;;4.17;2.50;;;15.70;99.90;;;;;;5018675;28;20434;-79
2021/08/05 03:31:38;;;;;;;2.30;2.00;;;15.70;99.90;;;;;;5018701;28;20540;-79
2021/08/05 03:34:04;;;;;;;4.03;2.57;;;15.70;99.90;;;;;;5001951;28;20451;-79
2021/08/05 03:36:29;;;;;;;2.53;1.93;;;15.70;99.90;;;;;;5020147;28;20172;-78
2021/08/05 03:38:55;;;;;;;4.13;2.40;;;15.70;99.90;;;;;;5010194;28;20220;-79
2021/08/05 03:41:20;;;;;;;4.10;2.30;;;15.70;99.90;;;;;;5018613;28;20184;-79
2021/08/05 03:43:46;;;;;;;4.33;2.67;;;15.60;99.90;;;;;;5024961;28;20715;-79
2021/08/05 03:46:11;;;;;;;4.47;2.40;;;15.70;99.90;;;;;;5021775;28;20194;-78
2021/08/05 03:48:37;;;;;;;4.73;3.10;;;15.70;99.90;;;;;;5020589;28;20185;-79
2021/08/05 03:51:05;;;;;;;4.43;2.00;;;15.70;99.90;;;;;;5018953;28;20169;-79
2021/08/05 03:53:33;;;;;;;2.33;2.10;;;15.70;99.90;;;;;;5019146;28;20558;-79
2021/08/05 03:55:59;;;;;;;3.70;2.97;;;15.70;99.90;;;;;;5018431;28;20414;-79
2021/08/05 03:58:24;;;;;;;3.23;2.43;;;15.70;99.90;;;;;;5018324;28;20460;-79
2021/08/05 04:00:50;;;;;;;4.87;2.70;;;15.70;99.90;;;;;;5017000;28;20598;-80
2021/08/05 04:03:15;;;;;;;3.30;2.20;;;15.80;99.90;;;;;;5018745;28;20220;-79
2021/08/05 04:05:41;;;;;;;4.50;2.27;;;15.80;99.90;;;;;;5017830;28;20188;-80
2021/08/05 04:08:07;;;;;;;1.90;1.70;;;15.80;99.90;;;;;;5017898;28;20179;-80
2021/08/05 04:10:32;;;;;;;3.13;2.80;;;15.70;99.90;;;;;;5018652;28;20615;-79
2021/08/05 04:12:58;;;;;;;3.27;2.67;;;15.70;99.90;;;;;;5018161;28;20212;-80
2021/08/05 04:15:23;;;;;;;4.73;2.60;;;15.80;99.90;;;;;;5019188;28;20179;-79
2021/08/05 04:17:49;;;;;;;2.80;2.60;;;15.80;99.90;;;;;;5001095;28;20186;-79
2021/08/05 04:20:17;;;;;;;4.37;2.63;;;15.80;99.90;;;;;;5016783;28;20690;-80
2021/08/05 04:22:42;;;;;;;4.60;2.60;;;15.80;99.90;;;;;;5016938;28;20787;-77
2021/08/05 04:25:09;;;;;;;7.03;4.50;;;15.80;99.90;;;;;;5017395;28;20431;-78
2021/08/05 04:27:39;;;;;;;4.93;3.43;;;15.90;99.90;;;;;;5015457;28;20205;-79
2021/08/05 04:30:10;;;;;;;3.83;2.80;;;16.00;99.90;;;;;;5016869;28;20420;-80
2021/08/05 04:32:37;;;;;;;3.43;2.50;;;16.00;99.90;;;;;;5016761;28;20434;-80
2021/08/05 04:35:04;;;;;;;3.03;2.57;;;16.00;99.90;;;;;;5015366;28;20419;-80
2021/08/05 04:37:30;;;;;;;2.17;1.97;;;16.10;99.90;;;;;;5016642;28;20772;-79
2021/08/05 04:39:55;;;;;;;7.57;2.37;;;16.00;99.90;;;;;;5017113;28;20467;-79
2021/08/05 04:42:21;;;;;;;2.77;1.83;;;16.00;99.90;;;;;;5015710;28;20181;-79
2021/08/05 04:44:46;;;;;;;2.27;2.07;;;15.90;99.90;;;;;;5016175;28;20197;-79
2021/08/05 04:47:12;;;;;;;6.80;3.80;;;15.90;99.90;;;;;;5016940;28;20174;-80
2021/08/05 04:49:37;;;;;;;6.77;4.17;;;15.90;99.90;;;;;;5017697;28;20209;-80
2021/08/05 04:52:05;;;;;;;3.30;2.03;;;16.00;99.90;;;;;;5017188;28;20299;-79
2021/08/05 04:54:33;;;;;;;3.03;2.23;;;16.00;99.90;;;;;;5017271;28;20199;-79
2021/08/05 04:56:58;;;;;;;4.60;2.20;;;16.00;99.90;;;;;;5017198;28;20508;-80
2021/08/05 04:59:24;;;;;;;3.97;2.43;;;16.10;99.90;;;;;;5015463;28;20500;-80
2021/08/05 05:01:49;;;;;;;3.07;2.40;;;16.00;99.90;;;;;;5015797;28;20178;-80
2021/08/05 05:04:15;;;;;;;8.20;2.47;;;16.00;99.90;;;;;;5015627;28;20197;-80
2021/08/05 05:06:40;;;;;;;5.97;3.90;;;16.10;99.90;;;;;;5016046;28;20178;-80
2021/08/05 05:09:06;;;;;;;5.93;3.13;;;16.20;99.90;;;;;;5016572;28;20216;-79
2021/08/05 05:11:31;;;;;;;4.10;3.10;;;16.10;99.90;;;;;;5016001;28;20251;-80
2021/08/05 05:13:57;;;;;;;5.07;3.33;;;16.10;99.90;;;;;;5017644;28;20312;-80
2021/08/05 05:16:23;;;;;;;5.40;3.50;;;16.10;99.90;;;;;;5015586;28;20243;-80
2021/08/05 05:18:52;;;;;;;5.53;2.97;;;16.20;99.90;;;;;;5016463;28;20801;-80
2021/08/05 05:21:17;;;;;;;4.47;3.17;;;16.40;99.90;;;;;;5016347;28;20784;-80
2021/08/05 05:23:43;;;;;;;4.80;3.17;;;16.40;99.90;;;;;;4998592;28;20441;-80
2021/08/05 05:26:09;;;;;;;7.90;3.43;;;16.60;99.90;;;;;;5015503;28;20178;-80
2021/08/05 05:28:36;;;;;;;6.13;3.37;;;16.60;99.90;;;;;;5017088;28;20409;-80
2021/08/05 05:31:02;;;;;;;6.53;2.90;;;16.60;99.90;;;;;;5016422;28;20174;-79
2021/08/05 05:33:28;;;;;;;5.00;4.03;;;16.70;99.90;;;;;;5016364;28;20447;-80
2021/08/05 05:35:54;;;;;;;7.57;3.73;;;16.70;99.90;;;;;;5014033;28;20421;-81
2021/08/05 05:38:20;;;;;;;5.97;3.50;;;16.70;99.90;;;;;;4997468;28;20609;-81
2021/08/05 05:40:46;;;;;;;4.97;4.13;;;16.90;99.90;;;;;;5017708;28;20420;-81
2021/08/05 05:43:13;;;;;;;19.83;12.33;;;17.00;99.90;;;;;;5017980;28;20578;-81
2021/08/05 05:45:44;;;;;;;8.87;4.13;;;17.00;99.90;;;;;;5018969;28;20525;-82
2021/08/05 05:48:10;;;;;;;5.70;4.50;;;17.10;99.90;;;;;;5018093;28;20420;-80
2021/08/05 05:50:36;;;;;;;4.53;3.70;;;17.10;99.90;;;;;;5019759;28;20409;-81
2021/08/05 05:53:03;;;;;;;5.20;3.73;;;17.20;99.90;;;;;;5019290;28;20936;-80
2021/08/05 05:55:28;;;;;;;3.53;3.20;;;17.50;99.90;;;;;;5018160;28;20920;-80
2021/08/05 05:57:54;;;;;;;4.10;3.13;;;17.50;99.90;;;;;;5019628;28;20406;-80
2021/08/05 06:00:19;;;;;;;6.43;4.17;;;17.90;99.90;;;;;;5019848;28;20238;-80
2021/08/05 06:02:45;;;;;;;5.80;3.77;;;18.20;99.90;;;;;;5017992;28;20249;-80
2021/08/05 06:05:11;;;;;;;4.20;3.37;;;17.70;99.90;;;;;;5019622;28;20247;-80
2021/08/05 06:07:50;;;;;;;3.57;3.00;;;17.60;99.90;;;;;;5018173;28;20216;-80
2021/08/05 06:10:19;;;;;;;5.00;3.00;;;17.70;99.90;;;;;;5018377;28;20429;-80
2021/08/05 06:12:45;;;;;;;8.90;3.80;;;17.60;99.90;;;;;;5018155;28;20437;-80
2021/08/05 06:15:12;;;;;;;5.10;4.20;;;17.60;99.90;;;;;;5018530;28;20839;-81
2021/08/05 06:17:41;;;;;;;5.73;3.50;;;17.80;99.90;;;;;;5019604;28;20174;-80
2021/08/05 06:20:07;;;;;;;4.53;3.53;;;17.90;99.90;;;;;;5019296;28;20495;-81
2021/08/05 06:22:37;;;;;;;5.30;3.77;;;17.90;99.90;;;;;;5018147;28;20498;-80
2021/08/05 06:25:03;;;;;;;5.80;3.90;;;18.30;99.90;;;;;;5018617;28;20415;-80
2021/08/05 06:27:29;;;;;;;6.43;4.03;;;18.50;99.90;;;;;;5018271;28;20489;-79
2021/08/05 06:29:54;;;;;;;4.20;3.60;;;18.90;99.90;;;;;;5017587;28;20916;-80
2021/08/05 06:32:20;;;;;;;4.80;3.33;;;19.40;99.90;;;;;;5017917;28;20201;-79
2021/08/05 06:34:45;;;;;;;4.20;3.27;;;19.40;99.90;;;;;;5017619;28;20301;-80
2021/08/05 06:37:11;;;;;;;8.17;4.00;;;19.70;99.90;;;;;;5018516;28;20650;-81
2021/08/05 06:39:37;;;;;;;3.47;3.13;;;20.10;99.90;;;;;;5018256;28;20248;-81
2021/08/05 06:42:02;;;;;;;6.20;4.17;;;19.80;99.90;;;;;;5018541;28;20174;-80
2021/08/05 06:44:28;;;;;;;7.33;4.40;;;18.90;99.90;;;;;;5019470;28;20197;-81
2021/08/05 06:46:53;;;;;;;6.17;3.90;;;19.00;99.90;;;;;;5020957;28;20179;-81
2021/08/05 06:49:20;;;;;;;9.50;4.23;;;18.90;99.90;;;;;;5019447;28;20703;-81
2021/08/05 06:51:45;;;;;;;5.27;4.10;;;19.10;99.90;;;;;;5020756;28;20174;-82
2021/08/05 06:54:11;;;;;;;5.80;4.00;;;19.30;99.90;;;;;;5020735;28;20446;-82
2021/08/05 06:56:37;;;;;;;4.20;3.43;;;19.40;99.90;;;;;;5003785;28;20182;-83
2021/08/05 06:59:03;;;;;;;11.03;3.97;;;19.90;99.90;;;;;;5021648;28;20196;-82
2021/08/05 07:01:28;;;;;;;6.30;4.10;;;20.30;99.90;;;;;;5022936;28;20496;-82
2021/08/05 07:03:55;;;;;;;4.17;3.63;;;20.40;99.90;;;;;;5020664;28;20195;-81
2021/08/05 07:06:21;;;;;;;5.20;3.40;;;20.30;99.90;;;;;;5019404;28;20266;-81
2021/08/05 07:08:47;;;;;;;5.43;3.97;;;20.60;99.90;;;;;;5017479;28;20845;-83
2021/08/05 07:11:13;;;;;;;4.40;4.00;;;20.90;99.90;;;;;;5000190;28;20201;-82
2021/08/05 07:13:38;;;;;;;4.23;3.60;;;21.00;99.90;;;;;;5018097;28;20455;-83
2021/08/05 07:16:04;;;;;;;6.00;4.07;;;21.20;99.90;;;;;;5016833;28;20229;-83
2021/08/05 07:18:30;;;;;;;5.20;4.07;;;21.10;99.90;;;;;;5016007;28;20212;-82
2021/08/05 07:20:57;;;;;;;4.37;3.23;;;20.80;99.90;;;;;;4998849;28;20184;-83
2021/08/05 07:23:23;;;;;;;5.00;3.63;;;20.70;99.90;;;;;;5015925;28;20225;-82
2021/08/05 07:25:48;;;;;;;3.63;3.30;;;21.00;99.90;;;;;;5016514;28;20814;-83
2021/08/05 07:28:14;;;;;;;4.97;3.67;;;20.90;99.90;;;;;;5015879;28;20195;-82
2021/08/05 07:30:40;;;;;;;4.43;3.93;;;20.60;99.90;;;;;;5016356;28;20177;-82
2021/08/05 07:33:05;;;;;;;5.03;4.00;;;20.50;99.90;;;;;;5017222;28;20205;-82
2021/08/05 07:35:34;;;;;;;4.10;3.70;;;20.50;99.90;;;;;;5017470;28;20172;-82
2021/08/05 07:37:59;;;;;;;5.70;4.10;;;20.70;99.90;;;;;;5016281;28;20181;-82
2021/08/05 07:40:25;;;;;;;5.77;3.80;;;21.00;99.90;;;;;;5016638;28;20791;-82
2021/08/05 07:42:50;;;;;;;5.80;3.83;;;20.90;99.90;;;;;;5016362;28;20200;-82
2021/08/05 07:45:16;;;;;;;5.97;3.80;;;21.00;99.90;;;;;;5015082;28;20220;-82
2021/08/05 07:47:44;;;;;;;14.20;4.40;;;21.10;99.90;;;;;;5015932;28;20181;-80
2021/08/05 07:50:10;;;;;;;4.60;3.60;;;21.20;99.90;;;;;;5015319;28;20263;-82
2021/08/05 07:52:37;;;;;;;5.90;3.90;;;21.40;99.90;;;;;;5014551;28;20811;-82
2021/08/05 07:55:05;;;;;;;4.60;3.30;;;21.50;99.90;;;;;;5015701;28;20833;-82
2021/08/05 07:57:31;;;;;;;3.30;2.90;;;21.50;99.90;;;;;;5019623;28;20426;-83
2021/08/05 07:59:57;;;;;;;5.23;3.53;;;21.50;99.90;;;;;;5016288;28;20460;-82
2021/08/05 08:02:22;;;;;;;6.30;3.40;;;21.50;99.90;;;;;;5015940;28;20562;-81
2021/08/05 08:04:48;;;;;;;6.00;3.93;;;21.20;99.90;;;;;;4999017;28;20202;-82
2021/08/05 08:07:13;;;;;;;4.27;3.20;;;20.60;99.90;;;;;;5016236;28;20189;-82
2021/08/05 08:09:39;;;;;;;5.23;4.10;;;20.40;99.90;;;;;;5016715;28;20181;-81
2021/08/05 08:12:04;;;;;;;4.30;3.90;;;20.70;99.90;;;;;;5017843;28;20660;-82
2021/08/05 08:14:33;;;;;;;3.80;3.47;;;20.70;99.90;;;;;;4999943;28;20290;-82
2021/08/05 08:16:59;;;;;;;4.33;3.70;;;20.60;99.90;;;;;;5016697;28;20201;-81
2021/08/05 08:19:30;;;;;;;5.20;3.80;;;20.50;99.90;;;;;;5015101;28;20499;-82
2021/08/05 08:21:55;;;;;;;5.77;4.00;;;20.60;99.90;;;;;;5015203;28;20758;-82
2021/08/05 08:24:23;;;;;;;7.43;4.77;;;20.50;99.90;;;;;;5015155;28;20436;-82
2021/08/05 08:26:48;;;;;;;4.93;3.60;;;20.60;99.90;;;;;;5014844;28;20184;-84
2021/08/05 08:29:14;;;;;;;5.30;4.03;;;20.80;99.90;;;;;;5016176;28;20412;-84
2021/08/05 08:31:39;;;;;;;5.07;3.73;;;21.00;99.90;;;;;;5015835;28;20252;-84
2021/08/05 08:34:05;;;;;;;5.40;4.10;;;21.10;99.90;;;;;;5014168;28;20236;-82
2021/08/05 08:36:30;;;;;;;4.13;3.20;;;21.00;99.90;;;;;;5015098;28;20205;-83
2021/08/05 08:38:58;;;;;;;4.43;3.37;;;21.00;99.90;;;;;;5015223;28;20208;-84
2021/08/05 08:41:24;;;;;;;3.87;3.47;;;21.20;99.90;;;;;;5016119;28;20184;-82
2021/08/05 08:43:51;;;;;;;4.67;3.93;;;21.30;99.90;;;;;;5015379;28;20424;-83
2021/08/05 08:46:20;;;;;;;3.80;3.40;;;21.30;99.90;;;;;;5014779;28;20411;-82
2021/08/05 08:48:50;;;;;;;3.27;2.97;;;21.10;99.90;;;;;;5016542;28;20416;-81
2021/08/05 08:51:17;;;;;;;3.83;3.47;;;21.00;99.90;;;;;;5016132;28;20416;-82
2021/08/05 08:53:44;;;;;;;3.90;3.50;;;20.90;99.90;;;;;;5014858;28;20450;-81
2021/08/05 08:56:10;;;;;;;6.40;3.93;;;21.00;99.90;;;;;;5016481;28;20439;-81
2021/08/05 08:58:36;;;;;;;4.50;3.80;;;21.40;99.90;;;;;;5014383;28;20467;-82
2021/08/05 09:01:02;;;;;;;10.53;4.13;;;21.60;99.90;;;;;;5016058;28;20401;-82
2021/08/05 09:03:28;;;;;;;7.07;4.00;;;21.40;99.90;;;;;;4997968;28;20433;-82
2021/08/05 09:05:57;;;;;;;5.60;4.23;;;21.60;99.90;;;;;;5015668;28;20496;-82
2021/08/05 09:08:23;;;;;;;5.23;3.73;;;21.80;99.90;;;;;;5015737;28;20424;-82
2021/08/05 09:10:48;;;;;;;4.10;3.23;;;21.80;99.90;;;;;;5014278;28;20468;-81
2021/08/05 09:13:16;;;;;;;7.33;3.60;;;22.00;99.90;;;;;;4997795;28;20213;-82
2021/08/05 09:15:47;;;;;;;4.70;3.70;;;22.10;99.90;;;;;;5016082;28;20178;-82
2021/08/05 09:18:35;;;;;;;3.40;3.10;;;21.70;99.90;;;;;;5023306;28;20591;-81
2021/08/05 09:21:17;;;;;;;3.80;3.00;;;21.80;99.90;;;;;;5025830;28;20431;-80
2021/08/05 09:24:01;;;;;;;4.83;3.80;;;22.00;99.90;;;;;;5026240;28;20436;-80
2021/08/05 09:26:41;;;;;;;3.40;3.10;;;21.70;99.90;;;;;;5026921;28;20426;-81
2021/08/05 09:29:19;;;;;;;3.87;2.33;;;21.60;99.90;;;;;;5037162;28;20411;-80
2021/08/05 09:31:51;;;;;;;3.27;2.77;;;21.50;99.90;;;;;;5054097;28;20413;-80
2021/08/05 09:34:39;;;;;;;3.27;2.97;;;21.40;99.90;;;;;;5056366;28;20479;-81
2021/08/05 09:37:09;;;;;;;5.50;3.23;;;21.40;99.90;;;;;;5038303;28;20423;-81
2021/08/05 09:39:37;;;;;;;3.07;2.80;;;21.50;99.90;;;;;;5038937;28;20800;-81
2021/08/05 09:42:08;;;;;;;4.00;3.07;;;21.80;99.90;;;;;;5054504;28;20440;-80
2021/08/05 09:44:36;;;;;;;3.23;2.90;;;22.00;99.90;;;;;;5021020;28;20507;-81
2021/08/05 09:47:20;;;;;;;3.23;2.93;;;22.30;99.90;;;;;;5041905;28;20411;-81
2021/08/05 09:49:45;;;;;;;2.50;2.30;;;22.10;99.90;;;;;;5057334;28;20438;-81
2021/08/05 09:52:12;;;;;;;3.60;3.00;;;22.20;99.90;;;;;;5056826;28;20411;-80
2021/08/05 09:54:42;;;;;;;3.43;2.97;;;21.90;99.90;;;;;;5058227;28;20216;-81
2021/08/05 09:57:10;;;;;;;3.60;2.70;;;22.10;99.90;;;;;;5024031;28;20454;-81
2021/08/05 10:00:08;;;;;;;5.30;3.57;;;22.00;99.90;;;;;;5018111;28;20471;-81
2021/08/05 10:02:46;;;;;;;3.40;3.10;;;21.90;99.90;;;;;;5053434;28;20438;-81
2021/08/05 10:05:14;;;;;;;2.93;2.63;;;22.20;99.90;;;;;;5053065;28;20446;-80
2021/08/05 10:07:47;;;;;;;4.27;3.73;;;22.10;99.90;;;;;;5046544;28;20499;-82
2021/08/05 10:10:15;;;;;;;3.53;2.80;;;22.30;99.90;;;;;;5038930;28;20446;-82
2021/08/05 10:12:48;;;;;;;3.73;3.07;;;22.50;99.90;;;;;;5021171;28;20436;-82
2021/08/05 10:15:14;;;;;;;2.70;2.50;;;22.60;99.90;;;;;;5037304;28;20458;-80
2021/08/05 10:17:41;;;;;;;3.00;2.53;;;22.30;99.90;;;;;;5038107;28;20412;-80
2021/08/05 10:20:10;;;;;;;3.67;2.70;;;22.20;99.90;;;;;;5037483;28;20512;-83
2021/08/05 10:22:39;;;;;;;3.57;2.67;;;22.20;99.90;;;;;;5036948;28;20523;-80
2021/08/05 10:25:11;;;;;;;5.10;2.30;;;22.20;99.90;;;;;;5038066;28;20771;-81
2021/08/05 10:27:38;;;;;;;3.10;2.90;;;22.30;99.90;;;;;;5037174;28;20427;-80
2021/08/05 10:30:08;;;;;;;2.80;2.60;;;22.00;99.90;;;;;;5039626;28;20408;-80
2021/08/05 10:32:33;;;;;;;3.03;2.73;;;22.10;99.90;;;;;;5037676;28;20863;-80
2021/08/05 10:35:00;;;;;;;3.23;2.90;;;22.20;99.90;;;;;;5037248;28;20444;-81
2021/08/05 10:37:26;;;;;;;3.87;3.57;;;22.40;99.90;;;;;;5038294;28;20173;-81
2021/08/05 10:39:56;;;;;;;4.33;3.20;;;22.50;99.90;;;;;;5038728;28;20471;-81
2021/08/05 10:42:24;;;;;;;3.43;3.13;;;22.60;99.90;;;;;;5041033;28;20455;-81
2021/08/05 10:45:01;;;;;;;4.10;3.37;;;22.50;99.90;;;;;;5044604;28;20409;-79
2021/08/05 10:47:34;;;;;;;6.00;3.33;;;22.20;99.90;;;;;;5043146;28;20437;-80
2021/08/05 10:50:09;;;;;;;4.80;3.30;;;22.20;99.90;;;;;;5035813;28;20415;-82
2021/08/05 10:52:35;;;;;;;2.90;2.67;;;22.20;99.90;;;;;;5047209;28;20436;-79
2021/08/05 10:55:02;;;;;;;3.30;3.00;;;22.20;99.90;;;;;;5046284;28;20949;-81
2021/08/05 10:57:28;;;;;;;3.63;3.30;;;22.30;99.90;;;;;;5037948;28;20235;-81
2021/08/05 11:00:13;;;;;;;4.00;3.70;;;22.30;99.90;;;;;;5020134;28;20463;-82
2021/08/05 11:02:46;;;;;;;2.70;2.50;;;22.40;99.90;;;;;;5037958;28;20200;-82
2021/08/05 11:05:37;;;;;;;2.93;2.30;;;22.50;99.90;;;;;;5038285;28;20423;-81
2021/08/05 11:08:08;;;;;;;3.50;2.73;;;22.60;99.90;;;;;;5036537;28;20416;-83
2021/08/05 11:10:38;;;;;;;5.13;2.70;;;22.50;99.90;;;;;;5037962;28;20427;-81
2021/08/05 11:13:09;;;;;;;3.50;2.40;;;22.90;99.90;;;;;;4999667;28;1082016;-81
2021/08/05 11:15:35;;;;;;;3.33;3.03;;;23.10;99.90;;;;;;5038422;28;20418;-81
2021/08/05 11:18:15;;;;;;;3.03;2.60;;;23.00;99.90;;;;;;5038858;28;20464;-82
2021/08/05 11:20:43;;;;;;;3.10;2.80;;;22.80;99.90;;;;;;5036297;28;20286;-82
2021/08/05 11:25:58;;;;;;;3.43;2.47;;;23.10;99.90;;;;;;5037810;28;20836;-82
2021/08/05 11:28:31;;;;;;;2.40;2.17;;;23.30;99.90;;;;;;5037512;28;20455;-81
2021/08/05 11:31:01;;;;;;;2.90;2.60;;;23.40;99.90;;;;;;5037335;28;20600;-81
2021/08/05 11:33:39;;;;;;;3.33;2.83;;;23.70;99.90;;;;;;5019472;28;20807;-82
2021/08/05 11:36:21;;;;;;;3.03;2.23;;;23.70;99.90;;;;;;5036213;28;20416;-83
2021/08/05 11:39:11;;;;;;;2.63;2.33;;;23.60;99.90;;;;;;5036455;28;21060;-82
2021/08/05 11:41:42;;;;;;;2.23;2.00;;;23.80;99.90;;;;;;5036205;28;20423;-81
2021/08/05 11:44:27;;;;;;;2.90;2.60;;;23.70;99.90;;;;;;5036860;28;20439;-81
2021/08/05 11:47:05;;;;;;;2.60;2.23;;;23.80;99.90;;;;;;5037079;28;20461;-81
2021/08/05 11:49:42;;;;;;;2.57;2.37;;;23.40;99.90;;;;;;5036732;28;20416;-81
2021/08/05 11:52:14;;;;;;;3.23;2.87;;;23.10;99.90;;;;;;5035231;28;20442;-80
2021/08/05 11:54:43;;;;;;;2.60;2.40;;;23.00;99.90;;;;;;5036516;28;20436;-81
2021/08/05 11:57:11;;;;;;;3.83;2.23;;;23.00;99.90;;;;;;5035287;28;20420;-81
2021/08/05 11:59:42;;;;;;;2.60;2.23;;;23.30;99.90;;;;;;5035369;28;20456;-81
2021/08/05 12:02:22;;;;;;;3.30;2.40;;;23.60;99.90;;;;;;5034855;28;20985;-81
2021/08/05 12:04:52;;;;;;;3.10;2.80;;;23.40;99.90;;;;;;5036086;28;20400;-82
2021/08/05 12:07:25;;;;;;;2.90;2.60;;;23.50;99.90;;;;;;5034863;28;20419;-81
2021/08/05 12:09:52;;;;;;;3.37;3.07;;;23.50;99.90;;;;;;5035656;28;20882;-81
2021/08/05 12:12:18;;;;;;;2.60;2.33;;;23.30;99.90;;;;;;5034510;28;20478;-82
2021/08/05 12:14:51;;;;;;;3.10;2.63;;;23.10;99.90;;;;;;5017880;28;20440;-82
2021/08/05 12:17:31;;;;;;;3.10;2.50;;;23.30;99.90;;;;;;5034420;28;20428;-81
2021/08/05 12:20:01;;;;;;;2.70;2.43;;;23.40;99.90;;;;;;5039080;28;20455;-81
2021/08/05 12:22:39;;;;;;;4.87;2.63;;;23.50;99.90;;;;;;5019718;28;20416;-80
2021/08/05 12:25:11;;;;;;;2.53;2.10;;;23.20;99.90;;;;;;5037004;28;20471;-82
2021/08/05 12:27:36;;;;;;;5.90;2.67;;;23.40;99.90;;;;;;5003845;28;20496;-81
2021/08/05 12:30:09;;;;;;;2.60;2.40;;;23.60;99.90;;;;;;5019008;28;20456;-81
2021/08/05 12:32:56;;;;;;;2.70;2.50;;;23.70;99.90;;;;;;5034634;28;20547;-80
2021/08/05 12:35:22;;;;;;;2.73;2.53;;;23.50;99.90;;;;;;5021721;28;20977;-81
2021/08/05 12:38:06;;;;;;;3.00;2.27;;;23.60;99.90;;;;;;5036582;28;20492;-81
2021/08/05 12:40:32;;;;;;;3.37;2.67;;;23.80;99.90;;;;;;5036445;28;20467;-81
2021/08/05 12:43:00;;;;;;;2.80;2.43;;;23.50;99.90;;;;;;5036352;28;20440;-81
2021/08/05 12:45:26;;;;;;;2.60;2.40;;;23.30;99.90;;;;;;5036643;28;20922;-81
2021/08/05 12:47:52;;;;;;;3.50;2.30;;;23.20;99.90;;;;;;5035300;28;20453;-82
2021/08/05 12:50:18;;;;;;;2.73;2.50;;;23.40;99.90;;;;;;5036949;28;20452;-81
2021/08/05 12:52:58;;;;;;;2.40;2.20;;;23.60;99.90;;;;;;5036983;28;20201;-80
2021/08/05 12:55:24;;;;;;;2.40;2.20;;;23.70;99.90;;;;;;5020280;28;20451;-82